sensor_id;sensor_type;location;lat;lon;timestamp;temperature;humidity
46784;DHT22;32544;52.832;13.816;2024-01-30T00:00:41;23.70;44.80
46784;DHT22;32544;52.832;13.816;2024-01-30T00:01:41;23.70;44.70
46784;DHT22;32544;52.832;13.816;2024-01-30T00:02:42;23.70;45.00
46784;DHT22;32544;52.832;13.816;2024-01-30T00:03:43;23.60;44.90
46784;DHT22;32544;52.832;13.816;2024-01-30T00:04:44;23.60;44.90
46784;DHT22;32544;52.832;13.816;2024-01-30T00:05:44;23.60;45.00
46784;DHT22;32544;52.832;13.816;2024-01-30T00:06:45;23.60;45.00
46784;DHT22;32544;52.832;13.816;2024-01-30T00:07:45;23.60;45.10
46784;DHT22;32544;52.832;13.816;2024-01-30T00:08:46;23.60;45.10
46784;DHT22;32544;52.832;13.816;2024-01-30T00:09:49;23.60;45.10
46784;DHT22;32544;52.832;13.816;2024-01-30T00:10:49;23.60;45.20
46784;DHT22;32544;52.832;13.816;2024-01-30T00:11:50;23.50;45.10
46784;DHT22;32544;52.832;13.816;2024-01-30T00:12:51;23.50;45.30
46784;DHT22;32544;52.832;13.816;2024-01-30T00:13:53;23.50;45.20
46784;DHT22;32544;52.832;13.816;2024-01-30T00:14:53;23.50;45.30
46784;DHT22;32544;52.832;13.816;2024-01-30T00:15:54;23.50;45.20
46784;DHT22;32544;52.832;13.816;2024-01-30T00:16:55;23.50;45.20
46784;DHT22;32544;52.832;13.816;2024-01-30T00:17:55;23.50;45.30
46784;DHT22;32544;52.832;13.816;2024-01-30T00:18:57;23.50;45.20
46784;DHT22;32544;52.832;13.816;2024-01-30T00:19:58;23.50;45.20
46784;DHT22;32544;52.832;13.816;2024-01-30T00:20:58;23.50;45.20
46784;DHT22;32544;52.832;13.816;2024-01-30T00:21:59;23.50;45.30
46784;DHT22;32544;52.832;13.816;2024-01-30T00:22:59;23.40;45.20
46784;DHT22;32544;52.832;13.816;2024-01-30T00:24:00;23.40;45.40
46784;DHT22;32544;52.832;13.816;2024-01-30T00:25:00;23.40;45.40
46784;DHT22;32544;52.832;13.816;2024-01-30T00:26:01;23.40;45.20
46784;DHT22;32544;52.832;13.816;2024-01-30T00:27:01;23.40;45.40
46784;DHT22;32544;52.832;13.816;2024-01-30T00:28:02;23.40;45.40
46784;DHT22;32544;52.832;13.816;2024-01-30T00:29:03;23.40;45.50
46784;DHT22;32544;52.832;13.816;2024-01-30T00:30:03;23.40;45.40
46784;DHT22;32544;52.832;13.816;2024-01-30T00:31:05;23.30;45.50
46784;DHT22;32544;52.832;13.816;2024-01-30T00:32:06;23.30;45.40
46784;DHT22;32544;52.832;13.816;2024-01-30T00:33:06;23.30;45.30
46784;DHT22;32544;52.832;13.816;2024-01-30T00:34:08;23.30;45.40
46784;DHT22;32544;52.832;13.816;2024-01-30T00:35:08;23.30;45.40
46784;DHT22;32544;52.832;13.816;2024-01-30T00:36:10;23.30;45.40
46784;DHT22;32544;52.832;13.816;2024-01-30T00:37:11;23.30;45.40
46784;DHT22;32544;52.832;13.816;2024-01-30T00:38:12;23.30;45.40
46784;DHT22;32544;52.832;13.816;2024-01-30T00:39:12;23.30;45.50
46784;DHT22;32544;52.832;13.816;2024-01-30T00:40:13;23.30;45.50
46784;DHT22;32544;52.832;13.816;2024-01-30T00:41:17;23.30;45.40
46784;DHT22;32544;52.832;13.816;2024-01-30T00:42:17;23.30;45.60
46784;DHT22;32544;52.832;13.816;2024-01-30T00:43:18;23.30;45.60
46784;DHT22;32544;52.832;13.816;2024-01-30T00:44:19;23.30;45.70
46784;DHT22;32544;52.832;13.816;2024-01-30T00:45:19;23.30;45.70
46784;DHT22;32544;52.832;13.816;2024-01-30T00:46:20;23.30;45.70
46784;DHT22;32544;52.832;13.816;2024-01-30T00:47:20;23.30;45.60
46784;DHT22;32544;52.832;13.816;2024-01-30T00:48:21;23.30;45.60
46784;DHT22;32544;52.832;13.816;2024-01-30T00:49:21;23.30;45.50
46784;DHT22;32544;52.832;13.816;2024-01-30T00:50:22;23.30;45.70
46784;DHT22;32544;52.832;13.816;2024-01-30T00:51:23;23.30;45.70
46784;DHT22;32544;52.832;13.816;2024-01-30T00:52:23;23.30;45.70
46784;DHT22;32544;52.832;13.816;2024-01-30T00:53:24;23.30;45.60
46784;DHT22;32544;52.832;13.816;2024-01-30T00:54:24;23.20;45.60
46784;DHT22;32544;52.832;13.816;2024-01-30T00:55:25;23.20;45.50
46784;DHT22;32544;52.832;13.816;2024-01-30T00:56:25;23.20;45.50
46784;DHT22;32544;52.832;13.816;2024-01-30T00:57:26;23.20;45.60
46784;DHT22;32544;52.832;13.816;2024-01-30T00:58:27;23.20;45.70
46784;DHT22;32544;52.832;13.816;2024-01-30T00:59:28;23.20;45.80
46784;DHT22;32544;52.832;13.816;2024-01-30T01:00:28;23.20;45.50
46784;DHT22;32544;52.832;13.816;2024-01-30T01:01:29;23.20;45.70
46784;DHT22;32544;52.832;13.816;2024-01-30T01:02:30;23.20;45.70
46784;DHT22;32544;52.832;13.816;2024-01-30T01:03:30;23.20;45.70
46784;DHT22;32544;52.832;13.816;2024-01-30T01:04:31;23.20;45.70
46784;DHT22;32544;52.832;13.816;2024-01-30T01:05:31;23.30;45.80
46784;DHT22;32544;52.832;13.816;2024-01-30T01:06:32;23.30;45.70
46784;DHT22;32544;52.832;13.816;2024-01-30T01:07:32;23.20;45.60
46784;DHT22;32544;52.832;13.816;2024-01-30T01:08:33;23.30;45.90
46784;DHT22;32544;52.832;13.816;2024-01-30T01:09:33;23.20;45.70
46784;DHT22;32544;52.832;13.816;2024-01-30T01:10:34;23.20;45.80
46784;DHT22;32544;52.832;13.816;2024-01-30T01:11:35;23.20;45.80
46784;DHT22;32544;52.832;13.816;2024-01-30T01:12:36;23.20;45.70
46784;DHT22;32544;52.832;13.816;2024-01-30T01:13:36;23.20;45.70
46784;DHT22;32544;52.832;13.816;2024-01-30T01:14:37;23.20;45.60
46784;DHT22;32544;52.832;13.816;2024-01-30T01:15:37;23.20;45.70
46784;DHT22;32544;52.832;13.816;2024-01-30T01:16:38;23.20;45.70
46784;DHT22;32544;52.832;13.816;2024-01-30T01:17:39;23.20;45.70
46784;DHT22;32544;52.832;13.816;2024-01-30T01:18:39;23.20;45.70
46784;DHT22;32544;52.832;13.816;2024-01-30T01:19:40;23.20;45.50
46784;DHT22;32544;52.832;13.816;2024-01-30T01:20:40;23.20;45.70
46784;DHT22;32544;52.832;13.816;2024-01-30T01:21:41;23.20;45.40
46784;DHT22;32544;52.832;13.816;2024-01-30T01:22:41;23.20;45.60
46784;DHT22;32544;52.832;13.816;2024-01-30T01:23:42;23.20;45.60
46784;DHT22;32544;52.832;13.816;2024-01-30T01:24:43;23.20;45.50
46784;DHT22;32544;52.832;13.816;2024-01-30T01:25:43;23.20;45.50
46784;DHT22;32544;52.832;13.816;2024-01-30T01:26:44;23.30;45.70
46784;DHT22;32544;52.832;13.816;2024-01-30T01:27:44;23.30;45.50
46784;DHT22;32544;52.832;13.816;2024-01-30T01:28:51;23.20;45.40
46784;DHT22;32544;52.832;13.816;2024-01-30T01:29:52;23.30;45.40
46784;DHT22;32544;52.832;13.816;2024-01-30T01:30:53;23.20;45.60
46784;DHT22;32544;52.832;13.816;2024-01-30T01:31:54;23.20;45.50
46784;DHT22;32544;52.832;13.816;2024-01-30T01:32:55;23.20;45.60
46784;DHT22;32544;52.832;13.816;2024-01-30T01:33:56;23.20;45.50
46784;DHT22;32544;52.832;13.816;2024-01-30T01:34:57;23.20;45.50
46784;DHT22;32544;52.832;13.816;2024-01-30T01:35:58;23.20;45.40
46784;DHT22;32544;52.832;13.816;2024-01-30T01:36:58;23.20;45.40
46784;DHT22;32544;52.832;13.816;2024-01-30T01:37:59;23.20;45.50
46784;DHT22;32544;52.832;13.816;2024-01-30T01:39:00;23.20;45.70
46784;DHT22;32544;52.832;13.816;2024-01-30T01:40:01;23.20;45.70
46784;DHT22;32544;52.832;13.816;2024-01-30T01:41:01;23.20;45.60
46784;DHT22;32544;52.832;13.816;2024-01-30T01:42:02;23.30;45.40
46784;DHT22;32544;52.832;13.816;2024-01-30T01:43:03;23.20;45.60
46784;DHT22;32544;52.832;13.816;2024-01-30T01:44:05;23.20;45.50
46784;DHT22;32544;52.832;13.816;2024-01-30T01:45:06;23.20;45.60
46784;DHT22;32544;52.832;13.816;2024-01-30T01:46:06;23.20;45.40
46784;DHT22;32544;52.832;13.816;2024-01-30T01:47:08;23.20;45.40
46784;DHT22;32544;52.832;13.816;2024-01-30T01:48:08;23.20;45.40
46784;DHT22;32544;52.832;13.816;2024-01-30T01:49:09;23.20;45.60
46784;DHT22;32544;52.832;13.816;2024-01-30T01:50:10;23.20;45.50
46784;DHT22;32544;52.832;13.816;2024-01-30T01:51:10;23.20;45.50
46784;DHT22;32544;52.832;13.816;2024-01-30T01:52:11;23.30;45.60
46784;DHT22;32544;52.832;13.816;2024-01-30T01:53:12;23.20;45.60
46784;DHT22;32544;52.832;13.816;2024-01-30T01:54:12;23.20;45.40
46784;DHT22;32544;52.832;13.816;2024-01-30T01:55:14;23.20;45.60
46784;DHT22;32544;52.832;13.816;2024-01-30T01:56:16;23.20;45.50
46784;DHT22;32544;52.832;13.816;2024-01-30T01:57:17;23.20;45.60
46784;DHT22;32544;52.832;13.816;2024-01-30T01:58:17;23.20;45.50
46784;DHT22;32544;52.832;13.816;2024-01-30T01:59:20;23.20;45.60
46784;DHT22;32544;52.832;13.816;2024-01-30T02:00:21;23.20;45.60
46784;DHT22;32544;52.832;13.816;2024-01-30T02:01:22;23.20;46.10
46784;DHT22;32544;52.832;13.816;2024-01-30T02:02:23;23.20;45.50
46784;DHT22;32544;52.832;13.816;2024-01-30T02:03:25;23.20;45.50
46784;DHT22;32544;52.832;13.816;2024-01-30T02:04:26;23.30;45.40
46784;DHT22;32544;52.832;13.816;2024-01-30T02:05:26;23.20;45.60
46784;DHT22;32544;52.832;13.816;2024-01-30T02:06:27;23.20;45.50
46784;DHT22;32544;52.832;13.816;2024-01-30T02:07:28;23.30;45.60
46784;DHT22;32544;52.832;13.816;2024-01-30T02:08:28;23.20;45.50
46784;DHT22;32544;52.832;13.816;2024-01-30T02:09:29;23.20;45.60
46784;DHT22;32544;52.832;13.816;2024-01-30T02:10:29;23.20;45.60
46784;DHT22;32544;52.832;13.816;2024-01-30T02:11:30;23.20;45.50
46784;DHT22;32544;52.832;13.816;2024-01-30T02:12:32;23.20;45.50
46784;DHT22;32544;52.832;13.816;2024-01-30T02:13:32;23.20;45.60
46784;DHT22;32544;52.832;13.816;2024-01-30T02:14:33;23.20;45.40
46784;DHT22;32544;52.832;13.816;2024-01-30T02:15:33;23.20;45.40
46784;DHT22;32544;52.832;13.816;2024-01-30T02:16:34;23.20;45.40
46784;DHT22;32544;52.832;13.816;2024-01-30T02:17:34;23.20;45.20
46784;DHT22;32544;52.832;13.816;2024-01-30T02:18:35;23.20;45.40
46784;DHT22;32544;52.832;13.816;2024-01-30T02:19:36;23.20;45.50
46784;DHT22;32544;52.832;13.816;2024-01-30T02:20:36;23.20;45.40
46784;DHT22;32544;52.832;13.816;2024-01-30T02:21:37;23.20;45.40
46784;DHT22;32544;52.832;13.816;2024-01-30T02:22:38;23.20;45.40
46784;DHT22;32544;52.832;13.816;2024-01-30T02:23:39;23.20;45.50
46784;DHT22;32544;52.832;13.816;2024-01-30T02:24:41;23.20;45.50
46784;DHT22;32544;52.832;13.816;2024-01-30T02:25:42;23.20;45.40
46784;DHT22;32544;52.832;13.816;2024-01-30T02:26:44;23.20;45.30
46784;DHT22;32544;52.832;13.816;2024-01-30T02:27:45;23.20;45.60
46784;DHT22;32544;52.832;13.816;2024-01-30T02:28:45;23.20;45.40
46784;DHT22;32544;52.832;13.816;2024-01-30T02:29:46;23.20;45.50
46784;DHT22;32544;52.832;13.816;2024-01-30T02:30:46;23.20;45.50
46784;DHT22;32544;52.832;13.816;2024-01-30T02:31:47;23.20;45.40
46784;DHT22;32544;52.832;13.816;2024-01-30T02:32:48;23.20;45.40
46784;DHT22;32544;52.832;13.816;2024-01-30T02:33:48;23.20;46.00
46784;DHT22;32544;52.832;13.816;2024-01-30T02:34:49;23.20;45.30
46784;DHT22;32544;52.832;13.816;2024-01-30T02:35:49;23.20;45.60
46784;DHT22;32544;52.832;13.816;2024-01-30T02:36:50;23.20;45.50
46784;DHT22;32544;52.832;13.816;2024-01-30T02:37:50;23.20;45.50
46784;DHT22;32544;52.832;13.816;2024-01-30T02:38:51;23.20;45.40
46784;DHT22;32544;52.832;13.816;2024-01-30T02:39:51;23.20;45.50
46784;DHT22;32544;52.832;13.816;2024-01-30T02:40:52;23.20;45.60
46784;DHT22;32544;52.832;13.816;2024-01-30T02:41:53;23.20;45.30
46784;DHT22;32544;52.832;13.816;2024-01-30T02:42:55;23.20;45.10
46784;DHT22;32544;52.832;13.816;2024-01-30T02:43:55;23.20;45.40
46784;DHT22;32544;52.832;13.816;2024-01-30T02:44:56;23.20;45.30
46784;DHT22;32544;52.832;13.816;2024-01-30T02:45:57;23.20;45.40
46784;DHT22;32544;52.832;13.816;2024-01-30T02:46:58;23.20;45.30
46784;DHT22;32544;52.832;13.816;2024-01-30T02:47:59;23.20;45.00
46784;DHT22;32544;52.832;13.816;2024-01-30T02:48:59;23.20;45.00
46784;DHT22;32544;52.832;13.816;2024-01-30T02:50:00;23.20;45.10
46784;DHT22;32544;52.832;13.816;2024-01-30T02:51:00;23.20;45.10
46784;DHT22;32544;52.832;13.816;2024-01-30T02:52:01;23.20;45.10
46784;DHT22;32544;52.832;13.816;2024-01-30T02:53:01;23.20;45.10
46784;DHT22;32544;52.832;13.816;2024-01-30T02:54:02;23.20;45.10
46784;DHT22;32544;52.832;13.816;2024-01-30T02:55:03;23.20;45.10
46784;DHT22;32544;52.832;13.816;2024-01-30T02:56:03;23.20;45.20
46784;DHT22;32544;52.832;13.816;2024-01-30T02:57:06;23.20;44.90
46784;DHT22;32544;52.832;13.816;2024-01-30T02:58:06;23.20;45.10
46784;DHT22;32544;52.832;13.816;2024-01-30T02:59:07;23.20;45.10
46784;DHT22;32544;52.832;13.816;2024-01-30T03:00:07;23.20;45.20
46784;DHT22;32544;52.832;13.816;2024-01-30T03:01:09;23.20;45.10
46784;DHT22;32544;52.832;13.816;2024-01-30T03:02:10;23.20;45.10
46784;DHT22;32544;52.832;13.816;2024-01-30T03:03:10;23.20;45.10
46784;DHT22;32544;52.832;13.816;2024-01-30T03:04:11;23.20;45.00
46784;DHT22;32544;52.832;13.816;2024-01-30T03:05:12;23.20;45.00
46784;DHT22;32544;52.832;13.816;2024-01-30T03:06:12;23.20;45.20
46784;DHT22;32544;52.832;13.816;2024-01-30T03:07:15;23.20;45.10
46784;DHT22;32544;52.832;13.816;2024-01-30T03:08:16;23.20;45.00
46784;DHT22;32544;52.832;13.816;2024-01-30T03:09:16;23.20;45.10
46784;DHT22;32544;52.832;13.816;2024-01-30T03:10:17;23.20;45.10
46784;DHT22;32544;52.832;13.816;2024-01-30T03:11:18;23.20;45.10
46784;DHT22;32544;52.832;13.816;2024-01-30T03:12:18;23.20;45.10
46784;DHT22;32544;52.832;13.816;2024-01-30T03:13:19;23.20;45.10
46784;DHT22;32544;52.832;13.816;2024-01-30T03:14:19;23.20;45.10
46784;DHT22;32544;52.832;13.816;2024-01-30T03:15:20;23.20;45.10
46784;DHT22;32544;52.832;13.816;2024-01-30T03:16:21;23.20;45.10
46784;DHT22;32544;52.832;13.816;2024-01-30T03:17:21;23.10;45.10
46784;DHT22;32544;52.832;13.816;2024-01-30T03:18:22;23.20;45.10
46784;DHT22;32544;52.832;13.816;2024-01-30T03:19:23;23.20;45.20
46784;DHT22;32544;52.832;13.816;2024-01-30T03:20:24;23.20;45.10
46784;DHT22;32544;52.832;13.816;2024-01-30T03:21:24;23.20;45.10
46784;DHT22;32544;52.832;13.816;2024-01-30T03:22:25;23.20;45.10
46784;DHT22;32544;52.832;13.816;2024-01-30T03:23:25;23.20;45.10
46784;DHT22;32544;52.832;13.816;2024-01-30T03:24:26;23.20;45.10
46784;DHT22;32544;52.832;13.816;2024-01-30T03:25:27;23.20;45.10
46784;DHT22;32544;52.832;13.816;2024-01-30T03:26:27;23.20;45.40
46784;DHT22;32544;52.832;13.816;2024-01-30T03:27:28;23.20;45.10
46784;DHT22;32544;52.832;13.816;2024-01-30T03:28:29;23.20;45.20
46784;DHT22;32544;52.832;13.816;2024-01-30T03:29:29;23.20;45.10
46784;DHT22;32544;52.832;13.816;2024-01-30T03:30:30;23.20;45.20
46784;DHT22;32544;52.832;13.816;2024-01-30T03:31:30;23.20;45.10
46784;DHT22;32544;52.832;13.816;2024-01-30T03:32:31;23.20;45.10
46784;DHT22;32544;52.832;13.816;2024-01-30T03:33:31;23.20;45.10
46784;DHT22;32544;52.832;13.816;2024-01-30T03:34:32;23.20;45.10
46784;DHT22;32544;52.832;13.816;2024-01-30T03:35:33;23.20;45.10
46784;DHT22;32544;52.832;13.816;2024-01-30T03:36:33;23.20;45.20
46784;DHT22;32544;52.832;13.816;2024-01-30T03:37:34;23.20;45.10
46784;DHT22;32544;52.832;13.816;2024-01-30T03:38:35;23.20;45.10
46784;DHT22;32544;52.832;13.816;2024-01-30T03:39:36;23.20;45.10
46784;DHT22;32544;52.832;13.816;2024-01-30T03:40:37;23.20;45.10
46784;DHT22;32544;52.832;13.816;2024-01-30T03:41:37;23.20;45.20
46784;DHT22;32544;52.832;13.816;2024-01-30T03:42:38;23.20;45.10
46784;DHT22;32544;52.832;13.816;2024-01-30T03:43:38;23.20;45.10
46784;DHT22;32544;52.832;13.816;2024-01-30T03:44:39;23.20;45.10
46784;DHT22;32544;52.832;13.816;2024-01-30T03:45:39;23.20;45.10
46784;DHT22;32544;52.832;13.816;2024-01-30T03:46:40;23.20;45.70
46784;DHT22;32544;52.832;13.816;2024-01-30T03:47:43;23.20;45.10
46784;DHT22;32544;52.832;13.816;2024-01-30T03:48:44;23.20;45.10
46784;DHT22;32544;52.832;13.816;2024-01-30T03:49:45;23.20;45.80
46784;DHT22;32544;52.832;13.816;2024-01-30T03:50:46;23.20;45.10
46784;DHT22;32544;52.832;13.816;2024-01-30T03:51:46;23.20;45.10
46784;DHT22;32544;52.832;13.816;2024-01-30T03:52:47;23.20;45.10
46784;DHT22;32544;52.832;13.816;2024-01-30T03:53:48;23.20;45.20
46784;DHT22;32544;52.832;13.816;2024-01-30T03:54:49;23.20;45.10
46784;DHT22;32544;52.832;13.816;2024-01-30T03:55:50;23.20;45.70
46784;DHT22;32544;52.832;13.816;2024-01-30T03:56:50;23.20;45.10
46784;DHT22;32544;52.832;13.816;2024-01-30T03:57:51;23.20;45.10
46784;DHT22;32544;52.832;13.816;2024-01-30T03:58:51;23.30;45.10
46784;DHT22;32544;52.832;13.816;2024-01-30T03:59:52;23.20;45.10
46784;DHT22;32544;52.832;13.816;2024-01-30T04:00:53;23.20;45.10
46784;DHT22;32544;52.832;13.816;2024-01-30T04:01:54;23.20;45.10
46784;DHT22;32544;52.832;13.816;2024-01-30T04:02:54;23.20;45.10
46784;DHT22;32544;52.832;13.816;2024-01-30T04:03:55;23.20;45.10
46784;DHT22;32544;52.832;13.816;2024-01-30T04:04:56;23.20;45.10
46784;DHT22;32544;52.832;13.816;2024-01-30T04:05:56;23.20;45.10
46784;DHT22;32544;52.832;13.816;2024-01-30T04:06:57;23.20;45.10
46784;DHT22;32544;52.832;13.816;2024-01-30T04:07:58;23.20;45.00
46784;DHT22;32544;52.832;13.816;2024-01-30T04:08:58;23.20;45.00
46784;DHT22;32544;52.832;13.816;2024-01-30T04:09:59;23.20;45.10
46784;DHT22;32544;52.832;13.816;2024-01-30T04:11:03;23.20;45.00
46784;DHT22;32544;52.832;13.816;2024-01-30T04:12:03;23.20;45.10
46784;DHT22;32544;52.832;13.816;2024-01-30T04:13:04;23.20;45.10
46784;DHT22;32544;52.832;13.816;2024-01-30T04:14:05;23.20;45.00
46784;DHT22;32544;52.832;13.816;2024-01-30T04:15:05;23.20;45.10
46784;DHT22;32544;52.832;13.816;2024-01-30T04:16:06;23.20;45.10
46784;DHT22;32544;52.832;13.816;2024-01-30T04:17:07;23.20;45.10
46784;DHT22;32544;52.832;13.816;2024-01-30T04:18:07;23.20;45.20
46784;DHT22;32544;52.832;13.816;2024-01-30T04:19:08;23.20;45.20
46784;DHT22;32544;52.832;13.816;2024-01-30T04:20:12;23.20;45.20
46784;DHT22;32544;52.832;13.816;2024-01-30T04:21:13;23.20;45.10
46784;DHT22;32544;52.832;13.816;2024-01-30T04:22:14;23.20;45.30
46784;DHT22;32544;52.832;13.816;2024-01-30T04:23:15;23.20;45.20
46784;DHT22;32544;52.832;13.816;2024-01-30T04:24:15;23.20;45.20
46784;DHT22;32544;52.832;13.816;2024-01-30T04:25:18;23.20;45.20
46784;DHT22;32544;52.832;13.816;2024-01-30T04:26:19;23.20;45.30
46784;DHT22;32544;52.832;13.816;2024-01-30T04:27:20;23.20;45.20
46784;DHT22;32544;52.832;13.816;2024-01-30T04:28:20;23.20;45.10
46784;DHT22;32544;52.832;13.816;2024-01-30T04:29:21;23.20;45.10
46784;DHT22;32544;52.832;13.816;2024-01-30T04:30:22;23.10;45.20
46784;DHT22;32544;52.832;13.816;2024-01-30T04:31:23;23.20;45.20
46784;DHT22;32544;52.832;13.816;2024-01-30T04:32:24;23.10;45.20
46784;DHT22;32544;52.832;13.816;2024-01-30T04:33:24;23.10;45.20
46784;DHT22;32544;52.832;13.816;2024-01-30T04:34:25;23.10;45.20
46784;DHT22;32544;52.832;13.816;2024-01-30T04:35:25;23.10;45.20
46784;DHT22;32544;52.832;13.816;2024-01-30T04:36:26;23.10;45.20
46784;DHT22;32544;52.832;13.816;2024-01-30T04:37:26;23.10;45.30
46784;DHT22;32544;52.832;13.816;2024-01-30T04:38:27;23.10;45.30
46784;DHT22;32544;52.832;13.816;2024-01-30T04:39:28;23.10;45.10
46784;DHT22;32544;52.832;13.816;2024-01-30T04:40:29;23.10;45.30
46784;DHT22;32544;52.832;13.816;2024-01-30T04:41:29;23.10;45.30
46784;DHT22;32544;52.832;13.816;2024-01-30T04:42:31;23.10;45.20
46784;DHT22;32544;52.832;13.816;2024-01-30T04:43:32;23.10;45.20
46784;DHT22;32544;52.832;13.816;2024-01-30T04:44:33;23.10;45.30
46784;DHT22;32544;52.832;13.816;2024-01-30T04:45:33;23.10;45.30
46784;DHT22;32544;52.832;13.816;2024-01-30T04:46:34;23.10;45.40
46784;DHT22;32544;52.832;13.816;2024-01-30T04:47:34;23.10;45.30
46784;DHT22;32544;52.832;13.816;2024-01-30T04:48:35;23.10;45.30
46784;DHT22;32544;52.832;13.816;2024-01-30T04:49:36;23.10;45.40
46784;DHT22;32544;52.832;13.816;2024-01-30T04:50:36;23.10;45.40
46784;DHT22;32544;52.832;13.816;2024-01-30T04:51:37;23.10;45.40
46784;DHT22;32544;52.832;13.816;2024-01-30T04:52:37;23.10;45.50
46784;DHT22;32544;52.832;13.816;2024-01-30T04:53:38;23.10;45.60
46784;DHT22;32544;52.832;13.816;2024-01-30T04:54:40;23.10;45.60
46784;DHT22;32544;52.832;13.816;2024-01-30T04:55:40;23.10;45.60
46784;DHT22;32544;52.832;13.816;2024-01-30T04:56:41;23.10;45.70
46784;DHT22;32544;52.832;13.816;2024-01-30T04:57:41;23.10;45.70
46784;DHT22;32544;52.832;13.816;2024-01-30T04:58:42;23.10;45.60
46784;DHT22;32544;52.832;13.816;2024-01-30T04:59:42;23.10;45.40
46784;DHT22;32544;52.832;13.816;2024-01-30T05:00:43;23.10;45.40
46784;DHT22;32544;52.832;13.816;2024-01-30T05:01:43;23.10;46.20
46784;DHT22;32544;52.832;13.816;2024-01-30T05:02:44;23.10;45.50
46784;DHT22;32544;52.832;13.816;2024-01-30T05:03:45;23.10;45.40
46784;DHT22;32544;52.832;13.816;2024-01-30T05:04:45;23.10;45.60
46784;DHT22;32544;52.832;13.816;2024-01-30T05:05:46;23.10;45.40
46784;DHT22;32544;52.832;13.816;2024-01-30T05:06:46;23.10;45.40
46784;DHT22;32544;52.832;13.816;2024-01-30T05:07:47;23.10;45.40
46784;DHT22;32544;52.832;13.816;2024-01-30T05:08:48;23.10;45.40
46784;DHT22;32544;52.832;13.816;2024-01-30T05:09:48;23.10;45.40
46784;DHT22;32544;52.832;13.816;2024-01-30T05:10:49;23.10;46.10
46784;DHT22;32544;52.832;13.816;2024-01-30T05:11:49;23.10;45.30
46784;DHT22;32544;52.832;13.816;2024-01-30T05:12:50;23.00;45.50
46784;DHT22;32544;52.832;13.816;2024-01-30T05:13:50;23.00;45.40
46784;DHT22;32544;52.832;13.816;2024-01-30T05:14:51;23.00;45.40
46784;DHT22;32544;52.832;13.816;2024-01-30T05:15:51;23.10;45.30
46784;DHT22;32544;52.832;13.816;2024-01-30T05:16:52;23.00;45.50
46784;DHT22;32544;52.832;13.816;2024-01-30T05:17:53;23.00;45.40
46784;DHT22;32544;52.832;13.816;2024-01-30T05:18:53;23.00;45.50
46784;DHT22;32544;52.832;13.816;2024-01-30T05:19:54;23.10;45.40
46784;DHT22;32544;52.832;13.816;2024-01-30T05:20:54;23.10;45.40
46784;DHT22;32544;52.832;13.816;2024-01-30T05:21:55;23.10;45.50
46784;DHT22;32544;52.832;13.816;2024-01-30T05:22:55;23.10;45.40
46784;DHT22;32544;52.832;13.816;2024-01-30T05:23:56;23.10;45.30
46784;DHT22;32544;52.832;13.816;2024-01-30T05:24:57;23.10;45.40
46784;DHT22;32544;52.832;13.816;2024-01-30T05:25:57;23.10;45.40
46784;DHT22;32544;52.832;13.816;2024-01-30T05:27:01;23.10;45.30
46784;DHT22;32544;52.832;13.816;2024-01-30T05:28:01;23.10;45.30
46784;DHT22;32544;52.832;13.816;2024-01-30T05:29:02;23.10;45.40
46784;DHT22;32544;52.832;13.816;2024-01-30T05:30:03;23.10;45.20
46784;DHT22;32544;52.832;13.816;2024-01-30T05:31:04;23.10;45.20
46784;DHT22;32544;52.832;13.816;2024-01-30T05:32:05;23.10;45.20
46784;DHT22;32544;52.832;13.816;2024-01-30T05:33:09;23.10;45.30
46784;DHT22;32544;52.832;13.816;2024-01-30T05:34:10;23.10;45.10
46784;DHT22;32544;52.832;13.816;2024-01-30T05:35:10;23.10;45.10
46784;DHT22;32544;52.832;13.816;2024-01-30T05:36:14;23.10;45.00
46784;DHT22;32544;52.832;13.816;2024-01-30T05:37:14;23.10;45.10
46784;DHT22;32544;52.832;13.816;2024-01-30T05:38:17;23.10;45.10
46784;DHT22;32544;52.832;13.816;2024-01-30T05:39:17;23.20;45.10
46784;DHT22;32544;52.832;13.816;2024-01-30T05:40:18;23.10;45.10
46784;DHT22;32544;52.832;13.816;2024-01-30T05:41:19;23.10;45.10
46784;DHT22;32544;52.832;13.816;2024-01-30T05:42:20;23.20;45.10
46784;DHT22;32544;52.832;13.816;2024-01-30T05:43:20;23.10;45.10
46784;DHT22;32544;52.832;13.816;2024-01-30T05:44:21;23.20;45.10
46784;DHT22;32544;52.832;13.816;2024-01-30T05:45:22;23.20;45.10
46784;DHT22;32544;52.832;13.816;2024-01-30T05:46:23;23.20;45.10
46784;DHT22;32544;52.832;13.816;2024-01-30T05:47:24;23.20;45.00
46784;DHT22;32544;52.832;13.816;2024-01-30T05:48:24;23.20;45.10
46784;DHT22;32544;52.832;13.816;2024-01-30T05:49:25;23.20;45.10
46784;DHT22;32544;52.832;13.816;2024-01-30T05:50:25;23.20;45.10
46784;DHT22;32544;52.832;13.816;2024-01-30T05:51:27;23.20;45.00
46784;DHT22;32544;52.832;13.816;2024-01-30T05:52:28;23.20;45.00
46784;DHT22;32544;52.832;13.816;2024-01-30T05:53:29;23.20;45.00
46784;DHT22;32544;52.832;13.816;2024-01-30T05:54:29;23.20;44.90
46784;DHT22;32544;52.832;13.816;2024-01-30T05:55:30;23.20;44.90
46784;DHT22;32544;52.832;13.816;2024-01-30T05:56:30;23.20;45.00
46784;DHT22;32544;52.832;13.816;2024-01-30T05:57:31;23.20;45.10
46784;DHT22;32544;52.832;13.816;2024-01-30T05:58:31;23.10;45.00
46784;DHT22;32544;52.832;13.816;2024-01-30T05:59:32;23.20;45.10
46784;DHT22;32544;52.832;13.816;2024-01-30T06:00:32;23.20;45.00
46784;DHT22;32544;52.832;13.816;2024-01-30T06:01:33;23.10;44.90
46784;DHT22;32544;52.832;13.816;2024-01-30T06:02:35;23.20;45.00
46784;DHT22;32544;52.832;13.816;2024-01-30T06:03:35;23.20;45.10
46784;DHT22;32544;52.832;13.816;2024-01-30T06:04:36;23.10;45.10
46784;DHT22;32544;52.832;13.816;2024-01-30T06:05:37;23.10;45.10
46784;DHT22;32544;52.832;13.816;2024-01-30T06:06:37;23.20;45.00
46784;DHT22;32544;52.832;13.816;2024-01-30T06:07:38;23.20;45.20
46784;DHT22;32544;52.832;13.816;2024-01-30T06:08:38;23.10;45.10
46784;DHT22;32544;52.832;13.816;2024-01-30T06:09:39;23.10;45.10
46784;DHT22;32544;52.832;13.816;2024-01-30T06:10:41;23.10;45.10
46784;DHT22;32544;52.832;13.816;2024-01-30T06:11:41;23.10;45.20
46784;DHT22;32544;52.832;13.816;2024-01-30T06:12:42;23.10;45.00
46784;DHT22;32544;52.832;13.816;2024-01-30T06:13:42;23.20;45.10
46784;DHT22;32544;52.832;13.816;2024-01-30T06:14:43;23.10;45.10
46784;DHT22;32544;52.832;13.816;2024-01-30T06:15:44;23.10;45.10
46784;DHT22;32544;52.832;13.816;2024-01-30T06:16:44;23.10;45.10
46784;DHT22;32544;52.832;13.816;2024-01-30T06:17:45;23.10;45.20